Time;durP1;ratioP1;P1;durP2;ratioP2;P2;SDS_P1;SDS_P2;PMS_P1;PMS_P2;Temp;Humidity;BMP_temperature;BMP_pressure;BME280_temperature;BME280_humidity;BME280_pressure;Samples;Min_cycle;Max_cycle;Signal;HPM_P1;HPM_P2
2021/12/22 00:02:30;;;;;;;0.13;0.13;;;;;;;-5.33;100.00;102090.34;4986352;28;20057;-80
2021/12/22 00:05:03;;;;;;;0.20;0.20;;;;;;;-5.39;100.00;102085.59;4987427;28;20069;-81
2021/12/22 00:07:36;;;;;;;0.20;0.20;;;;;;;-5.43;100.00;102092.16;4994459;28;20057;-81
2021/12/22 00:10:11;;;;;;;0.20;0.20;;;;;;;-5.55;100.00;102084.34;4986227;28;20050;-80
2021/12/22 00:12:39;;;;;;;0.30;0.30;;;;;;;-5.38;100.00;102088.09;4989566;28;20560;-81
2021/12/22 00:15:12;;;;;;;0.20;0.20;;;;;;;-5.44;100.00;102099.28;4989398;28;20060;-83
2021/12/22 00:17:46;;;;;;;0.15;0.15;;;;;;;-5.49;100.00;102093.56;4992714;28;20406;-82
2021/12/22 00:20:19;;;;;;;0.20;0.20;;;;;;;-5.46;100.00;102099.41;4991197;28;20042;-81
2021/12/22 00:22:52;;;;;;;0.20;0.20;;;;;;;-5.40;100.00;102103.34;4994296;28;20042;-81
2021/12/22 00:25:27;;;;;;;0.20;0.20;;;;;;;-5.43;100.00;102108.91;4985555;28;20065;-80
2021/12/22 00:28:01;;;;;;;0.17;0.17;;;;;;;-5.54;100.00;102093.13;4991639;28;20424;-82
2021/12/22 00:30:30;;;;;;;0.28;0.28;;;;;;;-5.55;100.00;102115.31;5001938;28;20054;-81
2021/12/22 00:33:04;;;;;;;0.20;0.20;;;;;;;-5.57;100.00;102107.50;4989693;28;20046;-80
2021/12/22 00:35:39;;;;;;;0.20;0.20;;;;;;;-5.58;100.00;102111.13;4987816;28;20054;-81
2021/12/22 00:38:17;;;;;;;0.20;0.20;;;;;;;-5.53;100.00;102105.44;4989691;28;20046;-81
2021/12/22 00:40:51;;;;;;;0.30;0.30;;;;;;;-5.46;100.00;102098.56;4992190;28;20399;-82
2021/12/22 00:43:19;;;;;;;0.28;0.28;;;;;;;-5.60;100.00;102091.03;4989225;28;20050;-81
2021/12/22 00:45:56;;;;;;;0.20;0.20;;;;;;;-5.56;100.00;102106.53;4989498;28;20057;-82
2021/12/22 00:48:25;;;;;;;0.20;0.20;;;;;;;-5.63;100.00;102098.28;5024945;28;20058;-81
2021/12/22 00:50:59;;;;;;;0.20;0.20;;;;;;;-5.70;100.00;102104.28;4987899;28;20042;-81
2021/12/22 00:53:27;;;;;;;0.20;0.20;;;;;;;-5.64;100.00;102107.22;4994168;28;20050;-82
2021/12/22 00:56:03;;;;;;;0.20;0.20;;;;;;;-5.64;100.00;102106.38;4984795;28;20042;-82
2021/12/22 00:58:37;;;;;;;0.20;0.20;;;;;;;-5.76;100.00;102107.47;4989911;28;20050;-82
2021/12/22 01:01:05;;;;;;;0.20;0.20;;;;;;;-5.82;100.00;102099.09;4988949;28;20050;-81
2021/12/22 01:03:34;;;;;;;0.20;0.20;;;;;;;-5.81;100.00;102103.41;4988958;28;20582;-82
2021/12/22 01:06:08;;;;;;;0.35;0.20;;;;;;;-5.91;100.00;102096.41;4991051;28;20058;-81
2021/12/22 01:08:36;;;;;;;0.15;0.15;;;;;;;-5.88;100.00;102096.13;4989040;28;20058;-81
2021/12/22 01:11:10;;;;;;;0.20;0.20;;;;;;;-5.90;100.00;102098.94;4990107;28;20058;-80
2021/12/22 01:13:44;;;;;;;0.20;0.20;;;;;;;-5.97;100.00;102110.25;4989761;28;20051;-82
2021/12/22 01:16:12;;;;;;;0.20;0.20;;;;;;;-6.12;100.00;102099.19;4991280;28;20076;-82
2021/12/22 01:18:41;;;;;;;0.10;0.10;;;;;;;-6.03;100.00;102109.81;4990550;28;20047;-81
2021/12/22 01:21:20;;;;;;;0.22;0.22;;;;;;;-6.00;100.00;102109.53;4988931;28;20053;-82
2021/12/22 01:24:01;;;;;;;0.10;0.10;;;;;;;-5.97;100.00;102110.25;4992605;28;20057;-81
2021/12/22 01:26:39;;;;;;;0.25;0.25;;;;;;;-5.94;100.00;102110.78;4990955;28;20069;-82
2021/12/22 01:29:13;;;;;;;0.10;0.10;;;;;;;-5.93;100.00;102108.97;4988618;28;20046;-82
2021/12/22 01:31:46;;;;;;;0.20;0.20;;;;;;;-6.03;100.00;102109.00;4994355;28;20431;-81
2021/12/22 01:34:19;;;;;;;0.13;0.13;;;;;;;-6.09;100.00;102094.47;4992890;28;20073;-82
2021/12/22 01:36:48;;;;;;;0.20;0.20;;;;;;;-5.93;100.00;102111.63;4995164;28;20073;-81
2021/12/22 01:39:21;;;;;;;0.20;0.20;;;;;;;-5.89;100.00;102107.75;4994680;28;20720;-81
2021/12/22 01:41:56;;;;;;;0.20;0.20;;;;;;;-5.90;100.00;102117.50;4992758;28;20054;-81
2021/12/22 01:44:35;;;;;;;0.20;0.20;;;;;;;-5.90;100.00;102120.13;4987522;28;20062;-81
2021/12/22 01:49:55;;;;;;;0.20;0.20;;;;;;;-5.78;100.00;102120.06;4991557;28;20487;-81
2021/12/22 01:52:28;;;;;;;0.10;0.10;;;;;;;-5.85;100.00;102114.44;4999574;28;20045;-82
2021/12/22 01:55:13;;;;;;;0.30;0.30;;;;;;;-5.70;100.00;102113.06;4992168;28;20053;-81
2021/12/22 01:57:51;;;;;;;0.20;0.20;;;;;;;-5.74;100.00;102116.97;4990283;28;20077;-81
2021/12/22 02:00:24;;;;;;;;;;;;;;;-5.77;100.00;102117.25;5023158;28;20057;-81
2021/12/22 02:02:52;;;;;;;0.20;0.20;;;;;;;-5.78;100.00;102115.56;4995130;28;20378;-81
2021/12/22 02:05:25;;;;;;;0.20;0.20;;;;;;;-5.87;100.00;102113.72;4993119;28;20054;-81
2021/12/22 02:08:01;;;;;;;0.20;0.20;;;;;;;-5.86;100.00;102118.06;5004366;28;20065;-81
2021/12/22 02:10:46;;;;;;;0.20;0.20;;;;;;;-5.93;100.00;102111.63;4991327;28;20064;-81
2021/12/22 02:13:26;;;;;;;0.20;0.20;;;;;;;-5.98;100.00;102080.25;4999465;28;20041;-81
2021/12/22 02:15:54;;;;;;;0.20;0.20;;;;;;;-5.81;100.00;102111.38;4996538;28;20104;-81
2021/12/22 02:18:31;;;;;;;0.20;0.20;;;;;;;-5.94;100.00;102086.91;4994508;28;20050;-80
2021/12/22 02:21:06;;;;;;;0.17;0.17;;;;;;;-5.83;100.00;102112.47;4988438;28;20053;-81
2021/12/22 02:23:35;;;;;;;0.20;0.20;;;;;;;-5.92;100.00;102115.94;4993055;28;20062;-81
2021/12/22 02:26:13;;;;;;;0.20;0.20;;;;;;;-5.87;100.00;102097.81;4990953;28;20042;-82
2021/12/22 02:28:56;;;;;;;0.20;0.20;;;;;;;-5.82;100.00;102109.69;4991444;28;20415;-81
2021/12/22 02:31:32;;;;;;;0.20;0.20;;;;;;;-5.77;100.00;102111.97;4992794;28;20054;-81
2021/12/22 02:34:06;;;;;;;0.15;0.15;;;;;;;-5.88;100.00;102115.56;4993631;28;20053;-82
2021/12/22 02:36:41;;;;;;;0.20;0.20;;;;;;;-5.79;100.00;102107.75;4991376;28;20050;-81
2021/12/22 02:39:14;;;;;;;0.20;0.20;;;;;;;-5.93;100.00;102109.81;4991418;28;20050;-81
2021/12/22 02:41:42;;;;;;;0.28;0.28;;;;;;;-5.87;100.00;102114.59;4990651;28;20080;-81
2021/12/22 02:44:16;;;;;;;0.20;0.20;;;;;;;-5.78;100.00;102118.22;4998175;28;20042;-82
2021/12/22 02:46:50;;;;;;;0.20;0.20;;;;;;;-5.84;100.00;102114.31;4990460;28;20050;-81
2021/12/22 02:49:23;;;;;;;0.20;0.20;;;;;;;-5.72;100.00;102117.66;4994000;28;20525;-82
2021/12/22 02:51:58;;;;;;;0.10;0.10;;;;;;;-5.77;100.00;102114.59;4990564;28;20458;-81
2021/12/22 02:54:28;;;;;;;0.20;0.20;;;;;;;-5.71;100.00;102126.47;4992463;28;20046;-81
2021/12/22 02:57:18;;;;;;;0.20;0.20;;;;;;;-5.75;100.00;102106.50;4994666;28;20415;-81
2021/12/22 03:00:11;;;;;;;0.20;0.20;;;;;;;-5.77;100.00;102106.66;4987673;28;20054;-82
2021/12/22 03:02:58;;;;;;;0.10;0.10;;;;;;;-5.75;100.00;102117.13;4975912;28;20644;-82
2021/12/22 03:05:33;;;;;;;0.30;0.30;;;;;;;-5.77;100.00;102114.59;4990675;28;20062;-81
2021/12/22 03:08:08;;;;;;;0.20;0.20;;;;;;;-5.78;100.00;102112.91;4988738;28;20058;-81
2021/12/22 03:10:41;;;;;;;0.15;0.15;;;;;;;-5.72;100.00;102119.50;4989187;28;20038;-81
2021/12/22 03:13:10;;;;;;;0.20;0.20;;;;;;;-5.84;100.00;102116.97;4992272;28;20065;-81
2021/12/22 03:15:43;;;;;;;0.20;0.20;;;;;;;-5.89;100.00;102110.38;4991342;28;20054;-83
2021/12/22 03:18:17;;;;;;;0.20;0.20;;;;;;;-5.83;100.00;102107.19;4986753;28;20066;-81
2021/12/22 03:20:57;;;;;;;0.20;0.20;;;;;;;-5.89;100.00;102100.63;4992223;28;20046;-80
2021/12/22 03:23:32;;;;;;;0.20;0.20;;;;;;;-5.75;100.00;102114.47;4988845;28;20050;-81
2021/12/22 03:26:05;;;;;;;0.20;0.20;;;;;;;-5.81;100.00;102105.25;5002447;28;20046;-81
2021/12/22 03:28:38;;;;;;;0.10;0.10;;;;;;;-5.78;100.00;102104.13;4983815;28;20057;-82
2021/12/22 03:31:12;;;;;;;0.20;0.20;;;;;;;-5.76;100.00;102104.81;4992846;28;20057;-81
2021/12/22 03:33:45;;;;;;;0.20;0.20;;;;;;;-5.68;100.00;102104.97;4991921;28;20057;-81
2021/12/22 03:36:18;;;;;;;0.20;0.20;;;;;;;-5.77;100.00;102096.03;4991473;28;20045;-81
2021/12/22 03:38:53;;;;;;;0.20;0.20;;;;;;;-5.79;100.00;102097.97;4989968;28;20046;-81
2021/12/22 03:41:27;;;;;;;0.20;0.20;;;;;;;-5.77;100.00;102098.69;4989429;28;20053;-82
2021/12/22 03:44:00;;;;;;;0.30;0.30;;;;;;;-5.85;100.00;102096.72;4987324;28;20057;-81
2021/12/22 03:46:34;;;;;;;0.20;0.20;;;;;;;-5.92;100.00;102100.91;4992314;28;20054;-82
2021/12/22 03:49:09;;;;;;;0.15;0.15;;;;;;;-5.93;100.00;102093.91;4986565;28;20046;-81
2021/12/22 03:51:43;;;;;;;0.10;0.10;;;;;;;-5.87;100.00;102100.47;4992885;28;20050;-82
2021/12/22 03:54:13;;;;;;;0.20;0.20;;;;;;;-5.90;100.00;102095.44;4992037;28;20507;-83
2021/12/22 03:56:47;;;;;;;0.20;0.20;;;;;;;-5.95;100.00;102101.16;4992939;28;20418;-81
2021/12/22 03:59:20;;;;;;;0.28;0.28;;;;;;;-6.15;100.00;102064.03;4990181;28;20053;-81
2021/12/22 04:01:54;;;;;;;0.10;0.10;;;;;;;-5.93;100.00;102093.91;4995873;28;20042;-82
2021/12/22 04:04:27;;;;;;;0.20;0.20;;;;;;;-5.90;100.00;102085.69;4996572;28;20069;-82
2021/12/22 04:07:00;;;;;;;0.10;0.10;;;;;;;-5.76;100.00;102094.22;5006362;28;20047;-81
2021/12/22 04:09:35;;;;;;;0.20;0.20;;;;;;;-5.78;100.00;102099.66;4984192;28;20499;-81
2021/12/22 04:12:04;;;;;;;0.43;0.30;;;;;;;-5.88;100.00;102096.13;4990368;28;20042;-81
2021/12/22 04:14:37;;;;;;;0.20;0.20;;;;;;;-5.71;100.00;102100.78;4990628;28;20054;-81
2021/12/22 04:17:10;;;;;;;0.30;0.30;;;;;;;-5.72;100.00;102104.41;4989804;28;20050;-82
2021/12/22 04:19:43;;;;;;;0.20;0.20;;;;;;;-5.72;100.00;102099.09;4995975;28;20038;-81
2021/12/22 04:22:17;;;;;;;0.20;0.20;;;;;;;-5.74;100.00;102108.19;4991528;28;20050;-82
2021/12/22 04:24:51;;;;;;;0.20;0.20;;;;;;;-5.76;100.00;102105.66;4991004;28;20046;-82
2021/12/22 04:27:24;;;;;;;0.20;0.20;;;;;;;-5.84;100.00;102100.19;5001956;28;20054;-82
2021/12/22 04:29:58;;;;;;;0.20;0.20;;;;;;;-5.84;100.00;102090.44;4998043;28;20387;-82
2021/12/22 04:32:26;;;;;;;0.20;0.20;;;;;;;-5.78;100.00;102096.19;4995254;28;20371;-81
2021/12/22 04:34:59;;;;;;;0.20;0.20;;;;;;;-5.74;100.00;102084.34;4994734;28;20495;-82
2021/12/22 04:37:32;;;;;;;0.30;0.30;;;;;;;-5.84;100.00;102076.34;4988324;28;20058;-81
2021/12/22 04:40:08;;;;;;;0.30;0.30;;;;;;;-5.77;100.00;102089.88;4989583;28;20046;-82
2021/12/22 04:42:42;;;;;;;0.30;0.30;;;;;;;-5.72;100.00;102091.16;4987037;28;20054;-81
2021/12/22 04:45:16;;;;;;;0.25;0.25;;;;;;;-5.69;100.00;102085.59;4991319;28;20068;-81
2021/12/22 04:47:51;;;;;;;0.20;0.20;;;;;;;-5.77;100.00;102087.22;4996970;28;20054;-80
2021/12/22 04:50:21;;;;;;;0.30;0.30;;;;;;;-5.76;100.00;102084.44;4993476;28;20093;-82
2021/12/22 04:52:56;;;;;;;0.20;0.20;;;;;;;-5.72;100.00;102082.38;4988037;28;20049;-82
2021/12/22 04:55:31;;;;;;;0.17;0.17;;;;;;;-5.76;100.00;102076.47;4990164;28;20061;-82
2021/12/22 04:58:05;;;;;;;0.20;0.20;;;;;;;-5.76;100.00;102080.97;4996610;28;20046;-81
2021/12/22 05:00:40;;;;;;;0.30;0.30;;;;;;;-5.69;100.00;102085.59;4995649;28;20068;-82
2021/12/22 05:03:09;;;;;;;0.30;0.30;;;;;;;-5.73;100.00;102081.53;5024992;28;20051;-82
2021/12/22 05:05:42;;;;;;;0.20;0.20;;;;;;;-5.71;100.00;102089.34;5000262;28;20054;-81
2021/12/22 05:08:16;;;;;;;0.30;0.30;;;;;;;-5.79;100.00;102075.94;5001581;28;20049;-82
2021/12/22 05:10:50;;;;;;;0.30;0.30;;;;;;;-5.79;100.00;102076.75;5000884;28;20406;-81
2021/12/22 05:13:23;;;;;;;0.22;0.20;;;;;;;-5.82;100.00;102072.56;4996519;28;20050;-82
2021/12/22 05:15:57;;;;;;;0.25;0.25;;;;;;;-5.85;100.00;102072.03;4992694;28;20058;-82
2021/12/22 05:18:49;;;;;;;0.20;0.20;;;;;;;-5.85;100.00;102075.50;5001329;28;20057;-82
2021/12/22 05:21:24;;;;;;;0.20;0.20;;;;;;;-5.86;100.00;102073.00;4991489;28;20058;-81
2021/12/22 05:23:53;;;;;;;0.20;0.20;;;;;;;-5.81;100.00;102073.44;4993968;28;20192;-81
2021/12/22 05:26:28;;;;;;;0.20;0.20;;;;;;;-5.84;100.00;102071.03;5004436;28;20038;-82
2021/12/22 05:29:01;;;;;;;0.30;0.30;;;;;;;-5.87;100.00;102068.66;4993766;28;20495;-82
2021/12/22 05:31:34;;;;;;;0.22;0.22;;;;;;;-5.83;100.00;102070.91;4996851;28;20057;-82
2021/12/22 05:34:08;;;;;;;0.30;0.30;;;;;;;-5.92;100.00;102076.19;4993967;28;20292;-81
2021/12/22 05:36:41;;;;;;;0.25;0.25;;;;;;;-5.85;100.00;102080.81;4992461;28;20051;-82
2021/12/22 05:39:14;;;;;;;0.20;0.20;;;;;;;-5.87;100.00;102073.97;4996806;28;20491;-81
2021/12/22 05:41:49;;;;;;;0.30;0.30;;;;;;;-5.90;100.00;102077.72;4993799;28;20046;-81
2021/12/22 05:44:22;;;;;;;0.45;0.40;;;;;;;-6.03;100.00;102077.19;4994178;28;20482;-81
2021/12/22 05:46:56;;;;;;;0.30;0.30;;;;;;;-5.97;100.00;102073.16;4995098;28;20567;-81
2021/12/22 05:49:29;;;;;;;0.20;0.20;;;;;;;-5.90;100.00;102077.72;4997270;28;20046;-83
2021/12/22 05:52:03;;;;;;;0.30;0.30;;;;;;;-5.84;100.00;102071.03;4998086;28;20053;-81
2021/12/22 05:54:37;;;;;;;0.20;0.20;;;;;;;-5.83;100.00;102062.09;5002717;28;20430;-81
2021/12/22 05:57:12;;;;;;;0.20;0.20;;;;;;;-5.89;100.00;102062.66;4997696;28;20482;-82
2021/12/22 05:59:45;;;;;;;0.30;0.30;;;;;;;-5.91;100.00;102068.13;4992189;28;20119;-81
2021/12/22 06:02:18;;;;;;;0.22;0.22;;;;;;;-5.86;100.00;102063.22;4998191;28;20054;-81
2021/12/22 06:04:52;;;;;;;0.20;0.20;;;;;;;-5.93;100.00;102062.09;5000307;28;20058;-81
2021/12/22 06:07:25;;;;;;;0.40;0.40;;;;;;;-5.98;100.00;102067.00;4999561;28;20053;-80
2021/12/22 06:09:58;;;;;;;0.20;0.20;;;;;;;-5.92;100.00;102057.63;4992248;28;20039;-81
2021/12/22 06:12:33;;;;;;;0.30;0.30;;;;;;;-5.85;100.00;102072.84;4988908;28;20050;-82
2021/12/22 06:15:07;;;;;;;0.28;0.28;;;;;;;-5.82;100.00;102072.56;4995409;28;20064;-82
2021/12/22 06:17:40;;;;;;;0.22;0.22;;;;;;;-5.79;100.00;102068.81;4992236;28;20050;-82
2021/12/22 06:20:13;;;;;;;0.20;0.20;;;;;;;-5.80;100.00;102069.78;4996742;28;20045;-81
2021/12/22 06:22:46;;;;;;;0.22;0.22;;;;;;;-5.65;100.00;102068.44;4992975;28;20067;-81
2021/12/22 06:25:20;;;;;;;0.20;0.20;;;;;;;-5.86;100.00;102057.91;5002475;28;20052;-81
2021/12/22 06:27:54;;;;;;;0.30;0.30;;;;;;;-5.74;100.00;102073.72;4994664;28;20050;-82
2021/12/22 06:30:27;;;;;;;0.30;0.30;;;;;;;-5.74;100.00;102066.59;4991956;28;20050;-81
2021/12/22 06:33:00;;;;;;;0.30;0.30;;;;;;;-5.78;100.00;102081.09;4990162;28;20061;-81
2021/12/22 06:35:29;;;;;;;0.30;0.30;;;;;;;-5.84;100.00;102074.53;4996067;28;20057;-81
2021/12/22 06:38:02;;;;;;;0.30;0.30;;;;;;;-5.78;100.00;102081.09;4990413;28;20412;-81
2021/12/22 06:40:35;;;;;;;0.25;0.20;;;;;;;-5.93;100.00;102077.19;4997302;28;20056;-81
2021/12/22 06:43:05;;;;;;;0.30;0.30;;;;;;;-6.11;100.00;102059.31;4993919;28;20062;-82
2021/12/22 06:45:38;;;;;;;0.20;0.20;;;;;;;-5.81;100.00;102084.88;4991134;28;20065;-82
2021/12/22 06:48:06;;;;;;;0.30;0.30;;;;;;;-5.85;100.00;102083.47;4993135;28;20043;-81
2021/12/22 06:50:40;;;;;;;0.30;0.30;;;;;;;-5.83;100.00;102080.66;4994621;28;20061;-81
2021/12/22 06:53:13;;;;;;;0.20;0.20;;;;;;;-5.85;100.00;102075.50;4992875;28;20056;-81
2021/12/22 06:55:46;;;;;;;0.20;0.20;;;;;;;-5.92;100.00;102065.56;4996530;28;20046;-82
2021/12/22 06:58:20;;;;;;;0.30;0.30;;;;;;;-5.84;100.00;102073.69;5007330;28;20086;-82
2021/12/22 07:00:54;;;;;;;0.20;0.20;;;;;;;-5.75;100.00;102075.50;5003210;28;20467;-82
2021/12/22 07:03:27;;;;;;;0.30;0.30;;;;;;;-5.89;100.00;102065.31;4994571;28;20045;-81
2021/12/22 07:06:00;;;;;;;0.20;0.20;;;;;;;-5.89;100.00;102057.38;4996788;28;20050;-81
2021/12/22 07:08:34;;;;;;;0.30;0.30;;;;;;;-5.90;100.00;102066.28;4992106;28;20046;-81
2021/12/22 07:11:07;;;;;;;0.25;0.25;;;;;;;-5.77;100.00;102066.03;4993754;28;20065;-81
2021/12/22 07:13:41;;;;;;;0.30;0.30;;;;;;;-5.79;100.00;102066.16;4994348;28;20038;-80
2021/12/22 07:16:15;;;;;;;0.38;0.38;;;;;;;-5.75;100.00;102067.56;4991190;28;20042;-81
2021/12/22 07:18:48;;;;;;;0.40;0.40;;;;;;;-5.83;100.00;102051.50;4989548;28;20077;-80
2021/12/22 07:21:21;;;;;;;0.40;0.40;;;;;;;-5.83;100.00;102052.34;4994911;28;20054;-82
2021/12/22 07:23:55;;;;;;;0.30;0.30;;;;;;;-5.87;100.00;102050.97;4992449;28;20053;-81
2021/12/22 07:26:28;;;;;;;0.30;0.30;;;;;;;-5.91;100.00;102057.50;4988138;28;20057;-80
2021/12/22 07:29:02;;;;;;;0.30;0.30;;;;;;;-5.80;100.00;102056.53;4992438;28;20047;-80
2021/12/22 07:31:36;;;;;;;0.30;0.30;;;;;;;-5.87;100.00;102052.75;4987937;28;20069;-81
2021/12/22 07:34:11;;;;;;;0.30;0.30;;;;;;;-5.81;100.00;102057.53;4992942;28;20402;-81
2021/12/22 07:36:50;;;;;;;0.30;0.30;;;;;;;-5.90;100.00;102051.22;5005399;28;20073;-81
2021/12/22 07:39:23;;;;;;;0.30;0.30;;;;;;;-5.88;100.00;102057.22;4993409;28;20053;-81
2021/12/22 07:41:57;;;;;;;0.35;0.35;;;;;;;-5.92;100.00;102049.66;4989192;28;20046;-81
2021/12/22 07:44:31;;;;;;;0.30;0.30;;;;;;;-5.88;100.00;102049.28;4984977;28;20432;-81
2021/12/22 07:46:59;;;;;;;0.30;0.30;;;;;;;-5.80;100.00;102053.88;4994999;28;20057;-81
2021/12/22 07:49:28;;;;;;;0.40;0.40;;;;;;;-5.85;100.00;102058.78;4990143;28;20046;-81
2021/12/22 07:52:01;;;;;;;0.20;0.20;;;;;;;-5.82;100.00;102048.72;4990678;28;20414;-81
2021/12/22 07:54:34;;;;;;;0.30;0.30;;;;;;;-5.77;100.00;102061.56;4997219;28;20058;-82
2021/12/22 07:57:02;;;;;;;0.30;0.30;;;;;;;-5.91;100.00;102041.59;4985437;28;20043;-80
2021/12/22 07:59:37;;;;;;;0.30;0.30;;;;;;;-5.76;100.00;102059.75;4991642;28;20046;-81
2021/12/22 08:02:12;;;;;;;0.30;0.30;;;;;;;-5.66;100.00;102058.78;4992428;28;20050;-81
2021/12/22 08:04:41;;;;;;;0.30;0.30;;;;;;;-5.64;100.00;102054.16;4989834;28;20054;-80
2021/12/22 08:07:14;;;;;;;0.30;0.30;;;;;;;-5.78;100.00;102046.63;5000459;28;20047;-79
2021/12/22 08:09:47;;;;;;;0.30;0.30;;;;;;;-5.68;100.00;102055.41;4988128;28;20039;-80
2021/12/22 08:12:20;;;;;;;0.30;0.30;;;;;;;-5.82;100.00;102046.06;4988236;28;20487;-80
2021/12/22 08:14:55;;;;;;;0.30;0.30;;;;;;;-5.74;100.00;102045.38;4981354;28;20047;-80
2021/12/22 08:17:30;;;;;;;0.20;0.20;;;;;;;-5.83;100.00;102046.19;4983416;28;20058;-81
2021/12/22 08:20:05;;;;;;;0.30;0.30;;;;;;;-5.68;100.00;102043.97;4986795;28;20053;-80
2021/12/22 08:22:39;;;;;;;0.32;0.32;;;;;;;-5.78;100.00;102041.31;4984775;28;20045;-82
2021/12/22 08:25:12;;;;;;;0.28;0.28;;;;;;;-5.76;100.00;102041.19;4980030;28;20057;-82
2021/12/22 08:27:41;;;;;;;0.20;0.20;;;;;;;-5.82;100.00;102032.81;4979517;28;20057;-80
2021/12/22 08:30:11;;;;;;;0.22;0.22;;;;;;;-5.81;100.00;102041.63;4970585;28;20050;-80
2021/12/22 08:32:44;;;;;;;0.20;0.20;;;;;;;-5.75;100.00;102030.44;4971477;28;20671;-81
2021/12/22 08:35:20;;;;;;;0.30;0.30;;;;;;;-5.76;100.00;102027.94;4985165;28;20065;-81
2021/12/22 08:40:40;;;;;;;0.40;0.40;;;;;;;-5.76;100.00;102023.44;4978805;28;20061;-80
2021/12/22 08:43:08;;;;;;;0.20;0.20;;;;;;;-5.59;100.00;102037.84;4973860;28;20054;-80
2021/12/22 08:45:43;;;;;;;0.20;0.20;;;;;;;-5.56;100.00;102036.75;4966628;28;20050;-81
2021/12/22 08:48:11;;;;;;;0.22;0.22;;;;;;;-5.54;100.00;102024.16;4967316;28;20050;-80
2021/12/22 08:50:44;;;;;;;0.30;0.30;;;;;;;-5.55;100.00;102015.38;4969290;28;20069;-81
2021/12/22 08:53:17;;;;;;;0.30;0.30;;;;;;;-5.39;100.00;102022.75;4970881;28;20066;-81
2021/12/22 08:55:50;;;;;;;0.45;0.45;;;;;;;-5.49;100.00;102019.28;4972168;28;20069;-79
2021/12/22 08:58:24;;;;;;;0.20;0.20;;;;;;;-5.43;100.00;102020.53;4976881;28;20039;-80
2021/12/22 09:00:58;;;;;;;0.20;0.20;;;;;;;-5.49;100.00;102020.09;4970055;28;20058;-80
2021/12/22 09:03:32;;;;;;;0.30;0.30;;;;;;;-5.47;100.00;102018.16;4969104;28;20061;-81
2021/12/22 09:06:06;;;;;;;0.30;0.30;;;;;;;-5.27;100.00;102017.31;4968373;28;20054;-80
2021/12/22 09:08:39;;;;;;;0.20;0.20;;;;;;;-5.22;100.00;102023.88;4976167;28;20080;-80
2021/12/22 09:11:13;;;;;;;0.30;0.30;;;;;;;-5.23;100.00;102016.88;4972405;28;20063;-83
2021/12/22 09:13:46;;;;;;;0.20;0.20;;;;;;;-5.12;100.00;102029.16;4986714;28;20065;-81
2021/12/22 09:16:21;;;;;;;0.30;0.30;;;;;;;-5.13;100.00;102022.97;4981086;28;20046;-82
2021/12/22 09:18:55;;;;;;;0.30;0.30;;;;;;;-5.02;100.00;102024.63;4980431;28;20054;-81
2021/12/22 09:21:29;;;;;;;0.20;0.20;;;;;;;-5.16;100.00;102025.09;4986381;28;20054;-82
2021/12/22 09:24:02;;;;;;;0.22;0.22;;;;;;;-5.10;100.00;102039.63;4982749;28;20049;-82
2021/12/22 09:26:36;;;;;;;0.22;0.22;;;;;;;-5.03;100.00;102041.53;4978652;28;20050;-81
2021/12/22 09:29:05;;;;;;;0.20;0.20;;;;;;;-4.98;100.00;102051.75;4982486;28;20058;-82
2021/12/22 09:31:35;;;;;;;0.22;0.22;;;;;;;-4.87;100.00;102042.78;4981086;28;20066;-81
2021/12/22 09:34:09;;;;;;;0.30;0.30;;;;;;;-4.82;100.00;102048.47;4982236;28;20054;-83
2021/12/22 09:36:43;;;;;;;0.30;0.30;;;;;;;-4.76;100.00;102047.06;4980647;28;20407;-82
2021/12/22 09:39:11;;;;;;;0.20;0.20;;;;;;;-4.68;100.00;102047.19;4978280;28;20058;-82
2021/12/22 09:41:45;;;;;;;0.30;0.30;;;;;;;-4.80;100.00;102054.50;4980699;28;20058;-82
2021/12/22 09:44:14;;;;;;;0.30;0.30;;;;;;;-4.82;100.00;102056.44;4981605;28;20064;-81
2021/12/22 09:46:52;;;;;;;0.40;0.40;;;;;;;-4.83;100.00;102057.44;4981058;28;20049;-81
2021/12/22 09:49:37;;;;;;;0.30;0.30;;;;;;;-4.81;100.00;102056.31;4983483;28;20054;-83
2021/12/22 09:52:20;;;;;;;0.30;0.30;;;;;;;-5.04;100.00;102047.00;4985348;28;20065;-82
2021/12/22 09:54:55;;;;;;;0.30;0.30;;;;;;;-4.90;100.00;102045.72;4984689;28;20076;-82
2021/12/22 09:57:30;;;;;;;0.30;0.30;;;;;;;-4.93;100.00;102046.81;4980557;28;20055;-82
2021/12/22 10:00:01;;;;;;;0.30;0.30;;;;;;;-4.83;100.00;102049.47;4984594;28;20054;-82
2021/12/22 10:02:42;;;;;;;0.20;0.20;;;;;;;-4.55;100.00;102047.69;4988083;28;20049;-81
2021/12/22 10:05:15;;;;;;;0.30;0.30;;;;;;;-4.70;100.00;102047.31;4983125;28;20069;-82
2021/12/22 10:08:08;;;;;;;0.30;0.30;;;;;;;-4.62;100.00;102041.28;4980346;28;20046;-81
2021/12/22 10:10:44;;;;;;;0.30;0.30;;;;;;;-4.58;100.00;102041.81;4984821;28;20061;-80
2021/12/22 10:13:15;;;;;;;0.25;0.25;;;;;;;-4.56;100.00;102051.31;4984327;28;20767;-80
2021/12/22 10:15:49;;;;;;;0.20;0.20;;;;;;;-4.40;100.00;102029.44;4981979;28;20058;-81
2021/12/22 10:18:27;;;;;;;0.30;0.30;;;;;;;-4.59;100.00;102026.88;4981561;28;20062;-81
2021/12/22 10:21:10;;;;;;;0.20;0.20;;;;;;;-4.58;100.00;102031.19;4979834;28;20057;-81
2021/12/22 10:23:46;;;;;;;0.30;0.30;;;;;;;-4.34;100.00;102030.69;4979242;28;20061;-81
2021/12/22 10:26:22;;;;;;;0.20;0.20;;;;;;;-4.34;100.00;102018.22;4982119;28;20060;-80
2021/12/22 10:28:54;;;;;;;0.20;0.20;;;;;;;-4.44;100.00;102030.72;4982628;28;20057;-80
2021/12/22 10:31:34;;;;;;;0.22;0.22;;;;;;;-4.40;100.00;102026.78;4977380;28;20057;-81
2021/12/22 10:34:10;;;;;;;0.20;0.20;;;;;;;-4.45;100.00;102023.72;4979580;28;20510;-82
2021/12/22 10:36:48;;;;;;;0.30;0.30;;;;;;;-4.40;100.00;102039.25;4983250;28;20050;-80
2021/12/22 10:39:27;;;;;;;0.20;0.20;;;;;;;-4.27;100.00;102037.06;4987475;28;20057;-82
2021/12/22 10:42:05;;;;;;;0.30;0.30;;;;;;;-4.39;100.00;102035.59;4985962;28;20384;-80
2021/12/22 10:44:36;;;;;;;0.30;0.30;;;;;;;-4.17;100.00;102034.34;4981193;28;20058;-80
2021/12/22 10:47:18;;;;;;;0.28;0.28;;;;;;;-4.24;100.00;102034.09;4980631;28;20054;-80
2021/12/22 10:50:03;;;;;;;0.20;0.20;;;;;;;-4.31;100.00;102041.88;4979511;28;20129;-83
2021/12/22 10:52:36;;;;;;;0.10;0.10;;;;;;;-4.08;100.00;102046.75;4980008;28;20063;-84
2021/12/22 10:55:11;;;;;;;0.20;0.20;;;;;;;-4.18;100.00;102046.81;4980559;28;21333;-82
2021/12/22 10:57:41;;;;;;;0.30;0.30;;;;;;;-4.31;100.00;102036.56;4984929;28;20055;-82
2021/12/22 11:00:18;;;;;;;0.20;0.20;;;;;;;-4.24;100.00;102030.63;4986334;28;20903;-83
2021/12/22 11:03:03;;;;;;;0.20;0.20;;;;;;;-4.13;100.00;102031.28;4984715;28;20401;-82
2021/12/22 11:05:43;;;;;;;0.30;0.30;;;;;;;-4.12;100.00;102016.16;4988793;28;20058;-82
2021/12/22 11:08:19;;;;;;;0.25;0.25;;;;;;;-4.06;100.00;102026.19;4990504;28;20050;-83
2021/12/22 11:10:53;;;;;;;0.20;0.20;;;;;;;-3.96;100.00;102016.31;4987827;28;20042;-82
2021/12/22 11:13:26;;;;;;;0.30;0.30;;;;;;;-3.99;100.00;101998.00;4988091;28;20061;-81
2021/12/22 11:15:59;;;;;;;0.20;0.20;;;;;;;-3.86;100.00;102004.78;4987485;28;20054;-81
2021/12/22 11:18:34;;;;;;;0.25;0.25;;;;;;;-4.05;100.00;102019.03;4989250;28;20057;-83
2021/12/22 11:21:15;;;;;;;0.30;0.30;;;;;;;-4.05;100.00;102022.53;4982668;28;20827;-82
2021/12/22 11:23:49;;;;;;;0.20;0.20;;;;;;;-3.95;100.00;102023.31;4981764;28;20065;-81
2021/12/22 11:26:17;;;;;;;0.20;0.20;;;;;;;-4.02;100.00;102016.06;4984997;28;20807;-81
2021/12/22 11:28:50;;;;;;;0.20;0.20;;;;;;;-4.07;100.00;102011.22;4982599;28;20067;-82
2021/12/22 11:31:19;;;;;;;0.20;0.20;;;;;;;-4.19;100.00;102004.44;4985544;28;20058;-83
2021/12/22 11:33:52;;;;;;;0.10;0.10;;;;;;;-4.07;100.00;102013.03;4985829;28;20055;-83
2021/12/22 11:36:28;;;;;;;0.30;0.30;;;;;;;-4.07;100.00;102010.38;4983615;28;20054;-81
2021/12/22 11:38:57;;;;;;;0.25;0.25;;;;;;;-4.02;100.00;102010.75;4979906;28;20065;-83
2021/12/22 11:41:31;;;;;;;0.20;0.20;;;;;;;-4.03;100.00;102012.59;4984699;28;20049;-81
2021/12/22 11:44:05;;;;;;;0.20;0.20;;;;;;;-3.91;100.00;102015.03;4985645;28;20078;-81
2021/12/22 11:46:40;;;;;;;0.45;0.25;;;;;;;-4.03;100.00;102007.28;4984004;28;20058;-83
2021/12/22 11:49:13;;;;;;;0.20;0.20;;;;;;;-4.06;100.00;101994.28;4983312;28;20050;-81
2021/12/22 11:51:48;;;;;;;0.20;0.20;;;;;;;-4.04;100.00;101991.47;4983984;28;20057;-82
2021/12/22 11:54:17;;;;;;;0.20;0.20;;;;;;;-4.03;100.00;101993.97;4989077;28;20062;-81